| time (UTC) | temp F | wind direction | speed MPH | gust MPH | rain 1hr in | rain 24hr in | rain mn in | humidity % | barometer mb |
| 20260902001530 | 84 | 207 | 0.0 | 5.0 | 0.00 | 0.00 | 0.00 | 73 | 1009.0 |
| 20260902000030 | 85 | 204 | 0.0 | 4.0 | 0.00 | 0.00 | 0.00 | 72 | 1008.8 |
| 20260901234529 | 86 | 200 | 0.0 | 3.0 | 0.00 | 0.00 | 0.00 | 70 | 1008.6 |
| 20260901233025 | 87 | 200 | 0.0 | 3.0 | 0.00 | 0.00 | 0.00 | 68 | 1009.0 |
| 20260901231523 | 88 | 277 | 0.0 | 5.0 | 0.00 | 0.00 | 0.00 | 65 | 1009.3 |
| 20260901230024 | 88 | 267 | 0.0 | 6.0 | 0.00 | 0.00 | 0.00 | 64 | 1009.3 |
| 20260901224524 | 89 | 325 | 0.0 | 5.0 | 0.00 | 0.00 | 0.00 | 62 | 1009.4 |
| 20260901223038 | 90 | 325 | 0.0 | 8.0 | 0.00 | 0.00 | 0.00 | 61 | 1009.4 |
| 20260901221522 | 90 | 202 | 0.0 | 4.0 | 0.00 | 0.00 | 0.00 | 60 | 1009.4 |
| 20260901220031 | 92 | 195 | 0.0 | 4.0 | 0.00 | 0.00 | 0.00 | 59 | 1009.3 |
| 20260901214521 | 93 | 291 | 0.0 | 8.0 | 0.00 | 0.00 | 0.00 | 56 | 1009.2 |
| 20260901213020 | 93 | 198 | 1.0 | 6.0 | 0.00 | 0.00 | 0.00 | 57 | 1009.3 |
| 20260901211517 | 92 | 266 | 2.0 | 8.0 | 0.00 | 0.00 | 0.00 | 57 | 1009.4 |
| 20260901210014 | 91 | 200 | 1.0 | 5.0 | 0.00 | 0.00 | 0.00 | 59 | 1009.5 |
| 20260901204512 | 90 | 284 | 0.0 | 7.0 | 0.00 | 0.00 | 0.00 | 60 | 1009.6 |
| 20260901203012 | 91 | 239 | 1.0 | 4.0 | 0.00 | 0.00 | 0.00 | 61 | 1009.6 |
| 20260901201511 | 90 | 291 | 0.0 | 6.0 | 0.00 | 0.00 | 0.00 | 61 | 1009.7 |
| 20260901200009 | 91 | 279 | 2.0 | 4.0 | 0.00 | 0.00 | 0.00 | 64 | 1009.9 |
| 20260901194511 | 91 | 290 | 1.0 | 5.0 | 0.00 | 0.00 | 0.00 | 64 | 1010.0 |
| 20260901193003 | 90 | 276 | 2.0 | 7.0 | 0.00 | 0.00 | 0.00 | 66 | 1010.1 |
| 20260901191503 | 88 | 290 | 2.0 | 5.0 | 0.00 | 0.00 | 0.00 | 68 | 1010.2 |
| 20260901190003 | 88 | 283 | 0.0 | 5.0 | 0.00 | 0.00 | 0.00 | 67 | 1010.2 |
| 20260901184601 | 89 | 205 | 0.0 | 4.0 | 0.00 | 0.00 | 0.00 | 66 | 1010.2 |
| 20260901183058 | 88 | 256 | 2.0 | 5.0 | 0.00 | 0.00 | 0.00 | 70 | 1010.4 |
| 20260901181601 | 87 | 279 | 1.0 | 7.0 | 0.00 | 0.00 | 0.00 | 71 | 1010.4 |
| 20260901180053 | 86 | 319 | 0.0 | 4.0 | 0.00 | 0.00 | 0.00 | 74 | 1010.5 |
| 20260901174552 | 86 | 271 | 3.0 | 7.0 | 0.00 | 0.00 | 0.00 | 75 | 1010.8 |
| 20260901173050 | 86 | 294 | 1.0 | 4.0 | 0.00 | 0.00 | 0.00 | 77 | 1010.8 |
| 20260901171604 | 85 | 281 | 1.0 | 4.0 | 0.00 | 0.00 | 0.00 | 79 | 1011.0 |
| 20260901170048 | 84 | 274 | 2.0 | 5.0 | 0.00 | 0.00 | 0.00 | 80 | 1011.1 |
| 20260901164543 | 83 | 323 | 0.0 | 5.0 | 0.00 | 0.00 | 0.00 | 83 | 1011.2 |
| 20260901163037 | 82 | 335 | 1.0 | 4.0 | 0.00 | 0.00 | 0.00 | 85 | 1011.4 |
| 20260901161533 | 80 | 266 | 1.0 | 4.0 | 0.00 | 0.00 | 0.00 | 88 | 1011.6 |
| 20260901160029 | 79 | 300 | 0.0 | 4.0 | 0.00 | 0.00 | 0.00 | 91 | 1011.7 |
| 20260901154527 | 78 | 310 | 3.0 | 7.0 | 0.00 | 0.00 | 0.00 | 92 | 1011.8 |
| 20260901153024 | 77 | 257 | 0.0 | 3.0 | 0.00 | 0.00 | 0.00 | 94 | 1011.6 |
| 20260901151521 | 76 | 278 | 0.0 | 2.0 | 0.00 | 0.00 | 0.00 | 95 | 1011.5 |
| 20260901150019 | 76 | 292 | 0.0 | 3.0 | 0.00 | 0.00 | 0.00 | 96 | 1011.4 |
| 20260901144517 | 76 | 300 | 0.0 | 3.0 | 0.00 | 0.00 | 0.00 | 96 | 1011.4 |
| 20260901143017 | 75 | 276 | 0.0 | 4.0 | 0.00 | 0.00 | 0.00 | 96 | 1011.3 |
| 20260901141531 | 75 | 261 | 0.0 | 4.0 | 0.00 | 0.00 | 0.00 | 97 | 1011.2 |
| 20260901140016 | 75 | 192 | 0.0 | 1.0 | 0.00 | 0.00 | 0.00 | 98 | 1011.3 |
| 20260901134514 | 75 | 188 | 0.0 | 0.0 | 0.00 | 0.00 | 0.00 | 98 | 1011.1 |
| 20260901133018 | 74 | 188 | 0.0 | 0.0 | 0.00 | 0.00 | 0.00 | 98 | 1011.2 |
| 20260901131515 | 74 | 188 | 0.0 | 0.0 | 0.00 | 0.00 | 0.00 | 97 | 1011.4 |
| 20260901130013 | 74 | 188 | 0.0 | 0.0 | 0.00 | 0.00 | 0.00 | 97 | 1011.4 |
| 20260901124513 | 73 | 188 | 0.0 | 0.0 | 0.00 | 0.00 | 0.00 | 97 | 1011.4 |
| 20260901123011 | 73 | 188 | 0.0 | 0.0 | 0.00 | 0.00 | 0.00 | 97 | 1011.5 |
| 20260901121509 | 73 | 188 | 0.0 | 0.0 | 0.00 | 0.00 | 0.00 | 97 | 1011.2 |
| 20260901120006 | 72 | 188 | 0.0 | 0.0 | 0.00 | 0.00 | 0.00 | 97 | 1010.9 |
| 20260901114505 | 71 | 188 | 0.0 | 0.0 | 0.00 | 0.00 | 0.00 | 96 | 1010.9 |
| 20260901113002 | 71 | 188 | 0.0 | 0.0 | 0.00 | 0.00 | 0.00 | 96 | 1010.7 |
| 20260901111502 | 71 | 188 | 0.0 | 0.0 | 0.00 | 0.00 | 0.00 | 96 | 1010.4 |
| 20260901110002 | 71 | 188 | 0.0 | 0.0 | 0.00 | 0.00 | 0.00 | 95 | 1010.3 |
| 20260901104559 | 71 | 188 | 0.0 | 0.0 | 0.00 | 0.00 | 0.00 | 96 | 1010.3 |
| 20260901103105 | 72 | 188 | 0.0 | 0.0 | 0.00 | 0.00 | 0.00 | 95 | 1010.1 |
| 20260901101557 | 72 | 188 | 0.0 | 0.0 | 0.00 | 0.00 | 0.00 | 96 | 1010.1 |
| 20260901100056 | 72 | 188 | 0.0 | 0.0 | 0.00 | 0.04 | 0.00 | 95 | 1010.1 |
| 20260901094555 | 72 | 188 | 0.0 | 0.0 | 0.00 | 0.04 | 0.00 | 95 | 1010.2 |
| 20260901093055 | 72 | 188 | 0.0 | 0.0 | 0.00 | 0.04 | 0.00 | 95 | 1010.5 |
| 20260901091556 | 72 | 188 | 0.0 | 0.0 | 0.00 | 0.04 | 0.00 | 95 | 1010.3 |
| 20260901090053 | 72 | 188 | 0.0 | 0.0 | 0.00 | 0.04 | 0.00 | 95 | 1010.2 |
| 20260901084550 | 73 | 188 | 0.0 | 0.0 | 0.00 | 0.04 | 0.00 | 94 | 1010.2 |
| 20260901083048 | 73 | 188 | 0.0 | 0.0 | 0.00 | 0.04 | 0.00 | 94 | 1010.0 |
| 20260901081548 | 73 | 188 | 0.0 | 0.0 | 0.00 | 0.04 | 0.00 | 94 | 1010.0 |
| 20260901080052 | 73 | 188 | 0.0 | 0.0 | 0.00 | 0.04 | 0.00 | 94 | 1009.9 |
| 20260901074557 | 74 | 188 | 0.0 | 0.0 | 0.00 | 0.04 | 0.00 | 94 | 1009.9 |
| 20260901073044 | 74 | 188 | 0.0 | 0.0 | 0.00 | 0.04 | 0.00 | 94 | 1009.9 |
| 20260901071544 | 74 | 188 | 0.0 | 0.0 | 0.00 | 0.04 | 0.00 | 94 | 1009.8 |
| 20260901070043 | 74 | 188 | 0.0 | 0.0 | 0.00 | 0.05 | 0.00 | 93 | 1009.7 |
| 20260901064542 | 74 | 188 | 0.0 | 0.0 | 0.00 | 0.05 | 0.00 | 93 | 1009.6 |
| 20260901063044 | 74 | 188 | 0.0 | 0.0 | 0.00 | 0.05 | 0.00 | 93 | 1009.7 |
| 20260901061539 | 74 | 188 | 0.0 | 0.0 | 0.00 | 0.05 | 0.00 | 93 | 1010.0 |
| 20260901060036 | 75 | 188 | 0.0 | 0.0 | 0.00 | 0.05 | 0.00 | 92 | 1009.9 |
| 20260901054536 | 75 | 188 | 0.0 | 0.0 | 0.00 | 0.05 | 0.00 | 92 | 1009.9 |
| 20260901053034 | 75 | 188 | 0.0 | 0.0 | 0.00 | 0.05 | 0.00 | 91 | 1009.8 |
| 20260901051532 | 75 | 188 | 0.0 | 0.0 | 0.00 | 0.05 | 0.00 | 91 | 1009.8 |
| 20260901050031 | 76 | 188 | 0.0 | 0.0 | 0.00 | 0.06 | 0.05 | 91 | 1009.8 |
| 20260901044530 | 76 | 188 | 0.0 | 0.0 | 0.00 | 0.06 | 0.05 | 91 | 1009.8 |
| 20260901043028 | 76 | 188 | 0.0 | 2.0 | 0.00 | 0.06 | 0.05 | 90 | 1009.8 |
| 20260901041529 | 77 | 187 | 0.0 | 1.0 | 0.00 | 0.06 | 0.05 | 90 | 1009.7 |
| 20260901040028 | 77 | 188 | 0.0 | 3.0 | 0.00 | 0.06 | 0.05 | 90 | 1009.8 |
| 20260901034530 | 77 | 194 | 0.0 | 1.0 | 0.00 | 0.06 | 0.05 | 89 | 1009.8 |
| 20260901033028 | 77 | 194 | 0.0 | 1.0 | 0.00 | 0.06 | 0.05 | 89 | 1009.8 |
| 20260901031531 | 78 | 194 | 0.0 | 0.0 | 0.00 | 0.06 | 0.05 | 88 | 1009.8 |
| 20260901030026 | 78 | 194 | 0.0 | 1.0 | 0.00 | 0.06 | 0.05 | 88 | 1010.0 |
| 20260901024526 | 78 | 194 | 0.0 | 3.0 | 0.00 | 0.06 | 0.05 | 87 | 1010.0 |
| 20260901023026 | 79 | 198 | 0.0 | 1.0 | 0.00 | 0.06 | 0.05 | 86 | 1009.9 |
| 20260901021527 | 79 | 200 | 0.0 | 2.0 | 0.00 | 0.06 | 0.05 | 86 | 1009.9 |
| 20260901020024 | 80 | 202 | 0.0 | 5.0 | 0.00 | 0.06 | 0.05 | 85 | 1010.0 |
| 20260901014523 | 80 | 193 | 0.0 | 3.0 | 0.00 | 0.06 | 0.05 | 84 | 1009.8 |
| 20260901013037 | 80 | 197 | 0.0 | 3.0 | 0.00 | 0.06 | 0.05 | 83 | 1009.7 |
| 20260901011533 | 81 | 198 | 0.0 | 0.0 | 0.00 | 0.06 | 0.05 | 82 | 1009.2 |
| 20260901010024 | 81 | 198 | 0.0 | 2.0 | 0.00 | 0.06 | 0.05 | 80 | 1009.0 |
| 20260901004522 | 82 | 321 | 0.0 | 2.0 | 0.00 | 0.06 | 0.05 | 79 | 1008.8 |
| 20260901003022 | 83 | 202 | 0.0 | 3.0 | 0.00 | 0.06 | 0.05 | 78 | 1008.6 |